PWSweather.com
Personal Weather Stations
Station Observations
SHAHALMS1
Eftra, Falkenberg, HA

EftraFalkenberg, HA

Lat: 56.85, Lon: 12.65

Elevation: 140

Station Type:

http://hem.passagen.se/risarp101

High Low Average
Temperature 64.9°F18.3°C 42.8°F6.0°C 53.2°F11.8°C
Dew Point 38.0°F3.3°C 24.2°F-4.3°C 31.7°F-0.2°C
Winds 17.3 mph 27.8 kmh 3.5 mph 5.6 kmh 12.0 mph E19.3 kmh E
Wind Gusts 33.6 mph54.1 kmh 9.3 mph15.0 kmh 22.0 mph35.4 kmh
Humidity 60% 34% 45%
Pressure 29.89 in1012.2 mb 29.74 in1007.1 mb -
Precipitation 0.00 in0.0 mm - -
Hour Temp Dew Point Humidity Winds Wind Gusts Pressure Precip Precip Rate Daily Precip Total
12:00 AM 45.3°F7.4°C 28.7°F-1.8°C 52% 5.9 mph E9.5 kmh E 12.5 mph20.1 kmh 29.77 in1008.1 mb 0.00 in0.0 mm 0.00 in0.0 mm 0.00 in0.0 mm
12:17 AM 44.4°F6.9°C 28.3°F-2.1°C 53% 6.0 mph E9.7 kmh E 10.7 mph17.2 kmh 29.80 in1009.1 mb 0.00 in0.0 mm 0.00 in0.0 mm 0.00 in0.0 mm
12:30 AM 44.4°F6.9°C 28.3°F-2.1°C 53% 6.7 mph E10.8 kmh E 13.6 mph21.9 kmh 29.77 in1008.1 mb 0.00 in0.0 mm 0.00 in0.0 mm 0.00 in0.0 mm
12:45 AM 44.4°F6.9°C 28.3°F-2.1°C 53% 6.5 mph E10.5 kmh E 12.2 mph19.6 kmh 29.77 in1008.1 mb 0.00 in0.0 mm 0.00 in0.0 mm 0.00 in0.0 mm
01:00 AM 44.4°F6.9°C 28.3°F-2.1°C 53% 6.5 mph E10.5 kmh E 16.8 mph27.0 kmh 29.77 in1008.1 mb 0.00 in0.0 mm 0.00 in0.0 mm 0.00 in0.0 mm
01:15 AM 44.4°F6.9°C 28.3°F-2.1°C 53% 3.5 mph ENE5.6 kmh ENE 10.4 mph16.7 kmh 29.77 in1008.1 mb 0.00 in0.0 mm 0.00 in0.0 mm 0.00 in0.0 mm
01:30 AM 44.4°F6.9°C 28.3°F-2.1°C 53% 5.9 mph E9.5 kmh E 10.4 mph16.7 kmh 29.77 in1008.1 mb 0.00 in0.0 mm 0.00 in0.0 mm 0.00 in0.0 mm
01:45 AM 44.4°F6.9°C 28.3°F-2.1°C 53% 4.1 mph ENE6.6 kmh ENE 9.3 mph15.0 kmh 29.77 in1008.1 mb 0.00 in0.0 mm 0.00 in0.0 mm 0.00 in0.0 mm
02:00 AM 44.4°F6.9°C 28.3°F-2.1°C 53% 6.0 mph E9.7 kmh E 12.2 mph19.6 kmh 29.77 in1008.1 mb 0.00 in0.0 mm 0.00 in0.0 mm 0.00 in0.0 mm
02:15 AM 44.4°F6.9°C 28.3°F-2.1°C 53% 7.3 mph E11.7 kmh E 14.0 mph22.5 kmh 29.77 in1008.1 mb 0.00 in0.0 mm 0.00 in0.0 mm 0.00 in0.0 mm
02:30 AM 44.4°F6.9°C 28.3°F-2.1°C 53% 7.5 mph E12.1 kmh E 14.0 mph22.5 kmh 29.77 in1008.1 mb 0.00 in0.0 mm 0.00 in0.0 mm 0.00 in0.0 mm
02:45 AM 43.3°F6.3°C 30.0°F-1.1°C 59% 7.9 mph E12.7 kmh E 16.1 mph25.9 kmh 29.77 in1008.1 mb 0.00 in0.0 mm 0.00 in0.0 mm 0.00 in0.0 mm
03:00 AM 43.3°F6.3°C 30.0°F-1.1°C 59% 8.5 mph E13.7 kmh E 14.0 mph22.5 kmh 29.74 in1007.1 mb 0.00 in0.0 mm 0.00 in0.0 mm 0.00 in0.0 mm
03:15 AM 43.2°F6.2°C 30.2°F-1.0°C 60% 9.1 mph E14.6 kmh E 15.7 mph25.3 kmh 29.74 in1007.1 mb 0.00 in0.0 mm 0.00 in0.0 mm 0.00 in0.0 mm
03:30 AM 43.2°F6.2°C 30.2°F-1.0°C 60% 9.0 mph E14.5 kmh E 16.8 mph27.0 kmh 29.77 in1008.1 mb 0.00 in0.0 mm 0.00 in0.0 mm 0.00 in0.0 mm
03:45 AM 43.2°F6.2°C 30.2°F-1.0°C 60% 10.6 mph E17.1 kmh E 19.7 mph31.7 kmh 29.74 in1007.1 mb 0.00 in0.0 mm 0.00 in0.0 mm 0.00 in0.0 mm
04:00 AM 43.7°F6.5°C 30.3°F-0.9°C 59% 10.6 mph E17.1 kmh E 20.8 mph33.5 kmh 29.77 in1008.1 mb 0.00 in0.0 mm 0.00 in0.0 mm 0.00 in0.0 mm
04:15 AM 43.7°F6.5°C 30.3°F-0.9°C 59% 11.0 mph E17.7 kmh E 20.4 mph32.8 kmh 29.77 in1008.1 mb 0.00 in0.0 mm 0.00 in0.0 mm 0.00 in0.0 mm
04:30 AM 43.5°F6.4°C 30.1°F-1.1°C 59% 9.8 mph E15.8 kmh E 20.4 mph32.8 kmh 29.74 in1007.1 mb 0.00 in0.0 mm 0.00 in0.0 mm 0.00 in0.0 mm
04:45 AM 43.2°F6.2°C 30.2°F-1.0°C 60% 8.8 mph E14.2 kmh E 14.3 mph23.0 kmh 29.77 in1008.1 mb 0.00 in0.0 mm 0.00 in0.0 mm 0.00 in0.0 mm
05:00 AM 43.0°F6.1°C 30.0°F-1.1°C 60% 9.3 mph E15.0 kmh E 16.1 mph25.9 kmh 29.74 in1007.1 mb 0.00 in0.0 mm 0.00 in0.0 mm 0.00 in0.0 mm
05:15 AM 42.8°F6.0°C 29.9°F-1.2°C 60% 8.3 mph E13.4 kmh E 16.5 mph26.6 kmh 29.77 in1008.1 mb 0.00 in0.0 mm 0.00 in0.0 mm 0.00 in0.0 mm
05:30 AM 43.0°F6.1°C 30.0°F-1.1°C 60% 8.9 mph E14.3 kmh E 15.0 mph24.1 kmh 29.77 in1008.1 mb 0.00 in0.0 mm 0.00 in0.0 mm 0.00 in0.0 mm
05:45 AM 43.0°F6.1°C 30.0°F-1.1°C 60% 7.9 mph ENE12.7 kmh ENE 14.0 mph22.5 kmh 29.77 in1008.1 mb 0.00 in0.0 mm 0.00 in0.0 mm 0.00 in0.0 mm
06:00 AM 43.2°F6.2°C 30.2°F-1.0°C 60% 7.7 mph ENE12.4 kmh ENE 12.9 mph20.8 kmh 29.77 in1008.1 mb 0.00 in0.0 mm 0.00 in0.0 mm 0.00 in0.0 mm
06:15 AM 43.2°F6.2°C 30.2°F-1.0°C 60% 7.9 mph ENE12.7 kmh ENE 13.6 mph21.9 kmh 29.80 in1009.1 mb 0.00 in0.0 mm 0.00 in0.0 mm 0.00 in0.0 mm
06:30 AM 43.9°F6.6°C 30.9°F-0.6°C 60% 6.6 mph NE10.6 kmh NE 14.0 mph22.5 kmh 29.80 in1009.1 mb 0.00 in0.0 mm 0.00 in0.0 mm 0.00 in0.0 mm
06:45 AM 44.6°F7.0°C 31.6°F-0.2°C 60% 5.6 mph NE9.0 kmh NE 11.8 mph19.0 kmh 29.80 in1009.1 mb 0.00 in0.0 mm 0.00 in0.0 mm 0.00 in0.0 mm
07:00 AM 46.0°F7.8°C 32.5°F0.3°C 59% 7.5 mph ENE12.1 kmh ENE 14.0 mph22.5 kmh 29.80 in1009.1 mb 0.00 in0.0 mm 0.00 in0.0 mm 0.00 in0.0 mm
07:15 AM 46.8°F8.2°C 32.8°F0.4°C 58% 9.0 mph E14.5 kmh E 19.3 mph31.1 kmh 29.80 in1009.1 mb 0.00 in0.0 mm 0.00 in0.0 mm 0.00 in0.0 mm
07:30 AM 48.9°F9.4°C 33.0°F0.6°C 54% 13.0 mph E20.9 kmh E 24.3 mph39.1 kmh 29.80 in1009.1 mb 0.00 in0.0 mm 0.00 in0.0 mm 0.00 in0.0 mm
07:45 AM 50.2°F10.1°C 34.2°F1.2°C 54% 12.8 mph E20.6 kmh E 20.8 mph33.5 kmh 29.80 in1009.1 mb 0.00 in0.0 mm 0.00 in0.0 mm 0.00 in0.0 mm
08:00 AM 51.8°F11.0°C 35.2°F1.8°C 53% 12.6 mph E20.3 kmh E 22.2 mph35.7 kmh 29.83 in1010.2 mb 0.00 in0.0 mm 0.00 in0.0 mm 0.00 in0.0 mm
08:16 AM 52.5°F11.4°C 35.4°F1.9°C 52% 12.2 mph E19.6 kmh E 20.8 mph33.5 kmh 29.83 in1010.2 mb 0.00 in0.0 mm 0.00 in0.0 mm 0.00 in0.0 mm
08:32 AM 54.0°F12.2°C 36.2°F2.3°C 51% 10.3 mph E16.6 kmh E 17.2 mph27.7 kmh 29.83 in1010.2 mb 0.00 in0.0 mm 0.00 in0.0 mm 0.00 in0.0 mm
08:45 AM 55.2°F12.9°C 36.9°F2.7°C 50% 13.5 mph E21.7 kmh E 26.8 mph43.1 kmh 29.83 in1010.2 mb 0.00 in0.0 mm 0.00 in0.0 mm 0.00 in0.0 mm
09:00 AM 56.1°F13.4°C 36.1°F2.3°C 47% 13.0 mph E20.9 kmh E 23.3 mph37.5 kmh 29.83 in1010.2 mb 0.00 in0.0 mm 0.00 in0.0 mm 0.00 in0.0 mm
09:15 AM 56.8°F13.8°C 35.7°F2.1°C 45% 17.3 mph E27.8 kmh E 31.9 mph51.3 kmh 29.80 in1009.1 mb 0.00 in0.0 mm 0.00 in0.0 mm 0.00 in0.0 mm
09:30 AM 57.7°F14.3°C 36.5°F2.5°C 45% 13.3 mph E21.4 kmh E 29.0 mph46.7 kmh 29.83 in1010.2 mb 0.00 in0.0 mm 0.00 in0.0 mm 0.00 in0.0 mm
09:45 AM 58.3°F14.6°C 35.9°F2.2°C 43% 15.3 mph E24.6 kmh E 28.3 mph45.5 kmh 29.80 in1009.1 mb 0.00 in0.0 mm 0.00 in0.0 mm 0.00 in0.0 mm
10:00 AM 58.8°F14.9°C 35.8°F2.1°C 42% 16.7 mph E26.9 kmh E 27.9 mph44.9 kmh 29.83 in1010.2 mb 0.00 in0.0 mm 0.00 in0.0 mm 0.00 in0.0 mm
10:15 AM 59.2°F15.1°C 36.1°F2.3°C 42% 16.9 mph E27.2 kmh E 28.6 mph46.0 kmh 29.83 in1010.2 mb 0.00 in0.0 mm 0.00 in0.0 mm 0.00 in0.0 mm
10:30 AM 59.7°F15.4°C 36.0°F2.2°C 41% 14.8 mph E23.8 kmh E 29.0 mph46.7 kmh 29.80 in1009.1 mb 0.00 in0.0 mm 0.00 in0.0 mm 0.00 in0.0 mm
10:45 AM 60.1°F15.6°C 36.3°F2.4°C 41% 16.1 mph E25.9 kmh E 31.1 mph50.1 kmh 29.83 in1010.2 mb 0.00 in0.0 mm 0.00 in0.0 mm 0.00 in0.0 mm
11:00 AM 60.8°F16.0°C 36.9°F2.7°C 41% 15.4 mph E24.8 kmh E 30.1 mph48.4 kmh 29.83 in1010.2 mb 0.00 in0.0 mm 0.00 in0.0 mm 0.00 in0.0 mm
11:15 AM 61.5°F16.4°C 37.6°F3.1°C 41% 14.7 mph E23.7 kmh E 31.1 mph50.1 kmh 29.83 in1010.2 mb 0.00 in0.0 mm 0.00 in0.0 mm 0.00 in0.0 mm
11:30 AM 62.2°F16.8°C 37.6°F3.1°C 40% 15.5 mph E24.9 kmh E 32.2 mph51.8 kmh 29.86 in1011.2 mb 0.00 in0.0 mm 0.00 in0.0 mm 0.00 in0.0 mm
11:45 AM 62.8°F17.1°C 36.8°F2.7°C 38% 12.6 mph E20.3 kmh E 23.6 mph38.0 kmh 29.86 in1011.2 mb 0.00 in0.0 mm 0.00 in0.0 mm 0.00 in0.0 mm
12:00 PM 63.5°F17.5°C 37.4°F3.0°C 38% 13.3 mph E21.4 kmh E 27.2 mph43.8 kmh 29.83 in1010.2 mb 0.00 in0.0 mm 0.00 in0.0 mm 0.00 in0.0 mm
12:15 PM 63.9°F17.7°C 37.7°F3.2°C 38% 14.1 mph E22.7 kmh E 24.7 mph39.8 kmh 29.80 in1009.1 mb 0.00 in0.0 mm 0.00 in0.0 mm 0.00 in0.0 mm
12:30 PM 64.0°F17.8°C 37.2°F2.9°C 37% 15.5 mph E24.9 kmh E 31.9 mph51.3 kmh 29.80 in1009.1 mb 0.00 in0.0 mm 0.00 in0.0 mm 0.00 in0.0 mm
12:45 PM 64.2°F17.9°C 37.4°F3.0°C 37% 14.8 mph E23.8 kmh E 28.3 mph45.5 kmh 29.83 in1010.2 mb 0.00 in0.0 mm 0.00 in0.0 mm 0.00 in0.0 mm
01:00 PM 64.4°F18.0°C 36.1°F2.3°C 35% 15.4 mph E24.8 kmh E 30.1 mph48.4 kmh 29.83 in1010.2 mb 0.00 in0.0 mm 0.00 in0.0 mm 0.00 in0.0 mm
01:15 PM 64.8°F18.2°C 37.2°F2.9°C 36% 11.9 mph E19.2 kmh E 23.6 mph38.0 kmh 29.80 in1009.1 mb 0.00 in0.0 mm 0.00 in0.0 mm 0.00 in0.0 mm
01:30 PM 64.8°F18.2°C 37.2°F2.9°C 36% 13.8 mph E22.2 kmh E 26.1 mph42.0 kmh 29.83 in1010.2 mb 0.00 in0.0 mm 0.00 in0.0 mm 0.00 in0.0 mm
01:45 PM 64.9°F18.3°C 38.0°F3.3°C 37% 13.4 mph E21.6 kmh E 22.5 mph36.2 kmh 29.83 in1010.2 mb 0.00 in0.0 mm 0.00 in0.0 mm 0.00 in0.0 mm
02:00 PM 64.8°F18.2°C 36.5°F2.5°C 35% 12.4 mph E20.0 kmh E 24.7 mph39.8 kmh 29.83 in1010.2 mb 0.00 in0.0 mm 0.00 in0.0 mm 0.00 in0.0 mm
02:15 PM 64.8°F18.2°C 35.7°F2.1°C 34% 12.8 mph E20.6 kmh E 24.7 mph39.8 kmh 29.83 in1010.2 mb 0.00 in0.0 mm 0.00 in0.0 mm 0.00 in0.0 mm
02:30 PM 64.6°F18.1°C 35.6°F2.0°C 34% 15.4 mph E24.8 kmh E 28.3 mph45.5 kmh 29.83 in1010.2 mb 0.00 in0.0 mm 0.00 in0.0 mm 0.00 in0.0 mm
02:45 PM 64.6°F18.1°C 35.6°F2.0°C 34% 13.5 mph E21.7 kmh E 28.3 mph45.5 kmh 29.83 in1010.2 mb 0.00 in0.0 mm 0.00 in0.0 mm 0.00 in0.0 mm
03:00 PM 64.9°F18.3°C 37.3°F2.9°C 36% 11.4 mph E18.3 kmh E 23.3 mph37.5 kmh 29.83 in1010.2 mb 0.00 in0.0 mm 0.00 in0.0 mm 0.00 in0.0 mm
03:15 PM 64.8°F18.2°C 35.7°F2.1°C 34% 12.1 mph E19.5 kmh E 24.7 mph39.8 kmh 29.83 in1010.2 mb 0.00 in0.0 mm 0.00 in0.0 mm 0.00 in0.0 mm
03:30 PM 64.6°F18.1°C 35.6°F2.0°C 34% 13.3 mph E21.4 kmh E 26.1 mph42.0 kmh 29.83 in1010.2 mb 0.00 in0.0 mm 0.00 in0.0 mm 0.00 in0.0 mm
03:45 PM 64.4°F18.0°C 35.4°F1.9°C 34% 11.8 mph E19.0 kmh E 24.3 mph39.1 kmh 29.83 in1010.2 mb 0.00 in0.0 mm 0.00 in0.0 mm 0.00 in0.0 mm
04:00 PM 64.0°F17.8°C 35.8°F2.1°C 35% 12.3 mph E19.8 kmh E 26.5 mph42.6 kmh 29.83 in1010.2 mb 0.00 in0.0 mm 0.00 in0.0 mm 0.00 in0.0 mm
04:45 PM 63.0°F17.2°C 34.1°F1.2°C 34% 9.3 mph E15.0 kmh E 14.3 mph23.0 kmh 29.83 in1010.2 mb 0.00 in0.0 mm 0.00 in0.0 mm 0.00 in0.0 mm
05:00 PM 62.4°F16.9°C 34.4°F1.3°C 35% 10.6 mph E17.1 kmh E 20.8 mph33.5 kmh 29.83 in1010.2 mb 0.00 in0.0 mm 0.00 in0.0 mm 0.00 in0.0 mm
05:15 PM 61.9°F16.6°C 33.2°F0.7°C 34% 11.5 mph E18.5 kmh E 22.2 mph35.7 kmh 29.83 in1010.2 mb 0.00 in0.0 mm 0.00 in0.0 mm 0.00 in0.0 mm
05:30 PM 61.2°F16.2°C 33.3°F0.7°C 35% 9.4 mph E15.1 kmh E 17.2 mph27.7 kmh 29.83 in1010.2 mb 0.00 in0.0 mm 0.00 in0.0 mm 0.00 in0.0 mm
05:45 PM 60.3°F15.7°C 32.5°F0.3°C 35% 11.0 mph E17.7 kmh E 28.3 mph45.5 kmh 29.83 in1010.2 mb 0.00 in0.0 mm 0.00 in0.0 mm 0.00 in0.0 mm
06:00 PM 59.4°F15.2°C 31.7°F-0.2°C 35% 10.7 mph E17.2 kmh E 17.5 mph28.2 kmh 29.83 in1010.2 mb 0.00 in0.0 mm 0.00 in0.0 mm 0.00 in0.0 mm
06:15 PM 58.6°F14.8°C 31.0°F-0.6°C 35% 11.1 mph E17.9 kmh E 19.0 mph30.6 kmh 29.83 in1010.2 mb 0.00 in0.0 mm 0.00 in0.0 mm 0.00 in0.0 mm
06:30 PM 57.9°F14.4°C 31.1°F-0.5°C 36% 10.3 mph E16.6 kmh E 23.3 mph37.5 kmh 29.86 in1011.2 mb 0.00 in0.0 mm 0.00 in0.0 mm 0.00 in0.0 mm
06:45 PM 57.0°F13.9°C 30.3°F-0.9°C 36% 9.9 mph E15.9 kmh E 21.1 mph34.0 kmh 29.86 in1011.2 mb 0.00 in0.0 mm 0.00 in0.0 mm 0.00 in0.0 mm
07:00 PM 56.3°F13.5°C 31.0°F-0.6°C 38% 12.6 mph E20.3 kmh E 24.7 mph39.8 kmh 29.86 in1011.2 mb 0.00 in0.0 mm 0.00 in0.0 mm 0.00 in0.0 mm
07:15 PM 55.6°F13.1°C 30.4°F-0.9°C 38% 12.3 mph E19.8 kmh E 20.8 mph33.5 kmh 29.89 in1012.2 mb 0.00 in0.0 mm 0.00 in0.0 mm 0.00 in0.0 mm
07:30 PM 55.2°F12.9°C 30.0°F-1.1°C 38% 13.6 mph E21.9 kmh E 27.2 mph43.8 kmh 29.89 in1012.2 mb 0.00 in0.0 mm 0.00 in0.0 mm 0.00 in0.0 mm
07:45 PM 54.3°F12.4°C 29.2°F-1.6°C 38% 14.5 mph E23.3 kmh E 33.6 mph54.1 kmh 29.89 in1012.2 mb 0.00 in0.0 mm 0.00 in0.0 mm 0.00 in0.0 mm
08:00 PM 53.6°F12.0°C 28.6°F-1.9°C 38% 13.8 mph E22.2 kmh E 24.7 mph39.8 kmh 29.89 in1012.2 mb 0.00 in0.0 mm 0.00 in0.0 mm 0.00 in0.0 mm
08:15 PM 52.9°F11.6°C 28.6°F-1.9°C 39% 13.7 mph E22.0 kmh E 27.2 mph43.8 kmh 29.89 in1012.2 mb 0.00 in0.0 mm 0.00 in0.0 mm 0.00 in0.0 mm
08:30 PM 52.2°F11.2°C 27.9°F-2.3°C 39% 14.3 mph E23.0 kmh E 26.5 mph42.6 kmh 29.86 in1011.2 mb 0.00 in0.0 mm 0.00 in0.0 mm 0.00 in0.0 mm
08:45 PM 51.6°F10.9°C 26.2°F-3.2°C 37% 15.1 mph E24.3 kmh E 25.4 mph40.9 kmh 29.86 in1011.2 mb 0.00 in0.0 mm 0.00 in0.0 mm 0.00 in0.0 mm
09:00 PM 50.9°F10.5°C 25.5°F-3.6°C 37% 13.9 mph E22.4 kmh E 27.9 mph44.9 kmh 29.86 in1011.2 mb 0.00 in0.0 mm 0.00 in0.0 mm 0.00 in0.0 mm
09:15 PM 50.4°F10.2°C 25.7°F-3.5°C 38% 13.3 mph E21.4 kmh E 27.6 mph44.4 kmh 29.86 in1011.2 mb 0.00 in0.0 mm 0.00 in0.0 mm 0.00 in0.0 mm
09:30 PM 49.6°F9.8°C 24.4°F-4.2°C 37% 15.8 mph E25.4 kmh E 27.2 mph43.8 kmh 29.89 in1012.2 mb 0.00 in0.0 mm 0.00 in0.0 mm 0.00 in0.0 mm
09:45 PM 48.9°F9.4°C 24.4°F-4.2°C 38% 11.6 mph E18.7 kmh E 24.3 mph39.1 kmh 29.89 in1012.2 mb 0.00 in0.0 mm 0.00 in0.0 mm 0.00 in0.0 mm
10:00 PM 48.7°F9.3°C 24.2°F-4.3°C 38% 14.4 mph E23.2 kmh E 25.4 mph40.9 kmh 29.86 in1011.2 mb 0.00 in0.0 mm 0.00 in0.0 mm 0.00 in0.0 mm
10:15 PM 48.7°F9.3°C 24.2°F-4.3°C 38% 16.4 mph E26.4 kmh E 28.3 mph45.5 kmh 29.86 in1011.2 mb 0.00 in0.0 mm 0.00 in0.0 mm 0.00 in0.0 mm
10:30 PM 48.7°F9.3°C 24.2°F-4.3°C 38% 14.1 mph E22.7 kmh E 24.7 mph39.8 kmh 29.86 in1011.2 mb 0.00 in0.0 mm 0.00 in0.0 mm 0.00 in0.0 mm
10:45 PM 48.7°F9.3°C 24.2°F-4.3°C 38% 14.3 mph E23.0 kmh E 27.9 mph44.9 kmh 29.89 in1012.2 mb 0.00 in0.0 mm 0.00 in0.0 mm 0.00 in0.0 mm
11:00 PM 48.7°F9.3°C 24.2°F-4.3°C 38% 14.7 mph E23.7 kmh E 24.7 mph39.8 kmh 29.86 in1011.2 mb 0.00 in0.0 mm 0.00 in0.0 mm 0.00 in0.0 mm
11:15 PM 48.7°F9.3°C 24.2°F-4.3°C 38% 14.5 mph E23.3 kmh E 24.3 mph39.1 kmh 29.89 in1012.2 mb 0.00 in0.0 mm 0.00 in0.0 mm 0.00 in0.0 mm
11:30 PM 48.7°F9.3°C 24.2°F-4.3°C 38% 13.1 mph E21.1 kmh E 25.1 mph40.4 kmh 29.89 in1012.2 mb 0.00 in0.0 mm 0.00 in0.0 mm 0.00 in0.0 mm
11:45 PM 48.7°F9.3°C 24.2°F-4.3°C 38% 14.0 mph E22.5 kmh E 26.5 mph42.6 kmh 29.86 in1011.2 mb 0.00 in0.0 mm 0.00 in0.0 mm 0.00 in0.0 mm